Alma Libre Too Cowes — 2JRZ5 — position and weather

sailwx.info

Track history (hours):
 
Tides and Currents Weather Stations Pressure Air Temp Water Temp Dewpoint Dewpoint Depression Visibility Wind Speed Wind Dir Waves Ship Positions

Alma Libre Too Cowes

Last reported at 2018-Jul-14 09:31 UTC. Time now 2018-Aug-19 22:54 UTC.
Position N 37°59' E 022°54'.
Warning: this ship's position is 36 days out of date.

Length 17 m.

Type: Other ship. MMSI: 235118446.

Date/timePositionNaut miles runAvg speedWind from/ knotsBaromVisibWave heightAir tempDewpointWater temp
2018-Jul-14 09:31N 37°59' E 022°54'3 7.2
2018-Jul-14 09:05N 37°58' E 022°57'1 6.3
2018-Jul-14 09:00N 37°57' E 022°57'3 6.6
2018-Jul-14 08:31N 37°55' E 023°00'0 0.2
2018-Jul-14 07:59N 37°55' E 023°01'2 4.9
2018-Jul-14 07:30N 37°54' E 023°03'4 7.1
2018-Jul-14 07:00N 37°54' E 023°08'3 6.7
2018-Jul-14 06:30N 37°53' E 023°12'4 6.7
2018-Jul-14 05:59N 37°53' E 023°16'4 6.9
2018-Jul-14 05:22N 37°52' E 023°22'3 7.3
2018-Jul-14 05:00N 37°52' E 023°25'4 7.3
2018-Jul-14 04:30N 37°52' E 023°30'3 6.9
2018-Jul-14 04:00N 37°53' E 023°34'4 7.1
2018-Jul-14 03:29N 37°55' E 023°38'2 4.4
2018-Jul-14 02:55N 37°56' E 023°41'0 0.0
2018-Jul-14 02:28N 37°56' E 023°41'0 0.0
2018-Jul-14 01:58N 37°56' E 023°41'0 0.0
2018-Jul-14 01:28N 37°56' E 023°41'0 0.0
2018-Jul-14 00:58N 37°56' E 023°41'0 0.0
2018-Jul-14 00:28N 37°56' E 023°41'0 0.0
2018-Jul-13 23:58N 37°56' E 023°41'0 0.0
2018-Jul-13 23:28N 37°56' E 023°41'0 0.0
2018-Jul-13 22:58N 37°56' E 023°41'0 0.0
2018-Jul-13 22:28N 37°56' E 023°41'0 0.0
2018-Jul-13 21:58N 37°56' E 023°41'0 0.0
2018-Jul-13 21:28N 37°56' E 023°41'0 0.0
2018-Jul-13 20:58N 37°56' E 023°41'0 0.0
2018-Jul-13 20:28N 37°56' E 023°41'0 0.0
2018-Jul-13 19:55N 37°56' E 023°41'0 0.0
2018-Jul-13 19:28N 37°56' E 023°41'0 0.0
2018-Jul-13 18:58N 37°56' E 023°41'0 0.0
2018-Jul-13 18:28N 37°56' E 023°41'0 0.0
2018-Jul-13 17:58N 37°56' E 023°41'0 0.0
2018-Jul-13 17:28N 37°56' E 023°41'0 0.0
2018-Jul-13 16:58N 37°56' E 023°41'0 0.0
2018-Jul-13 16:28N 37°56' E 023°41'0 0.0
2018-Jul-13 15:58N 37°56' E 023°41'0 0.0
2018-Jul-13 15:28N 37°56' E 023°41'0 0.0
2018-Jul-13 14:58N 37°56' E 023°41'0 0.0
2018-Jul-13 14:28N 37°56' E 023°41'0 0.0
2018-Jul-13 13:28N 37°56' E 023°41'0 0.0
2018-Jul-13 12:58N 37°56' E 023°41'0 0.0
2018-Jul-13 12:28N 37°56' E 023°41'0 0.0
2018-Jul-13 11:58N 37°56' E 023°41'0 0.0
2018-Jul-13 11:25N 37°56' E 023°41'0 0.0
2018-Jul-13 10:55N 37°56' E 023°41'0 0.0
2018-Jul-13 10:28N 37°56' E 023°41'0 0.0
2018-Jul-13 09:58N 37°56' E 023°41'0 0.0
2018-Jul-13 09:28N 37°56' E 023°41'0 0.0
2018-Jul-13 08:58N 37°56' E 023°41'0 0.0
2018-Jul-13 08:28N 37°56' E 023°41'0 0.0
2018-Jul-13 07:58N 37°56' E 023°41'0 0.0
2018-Jul-13 07:28N 37°56' E 023°41'0 0.0
2018-Jul-13 06:58N 37°56' E 023°41'0 0.0
2018-Jul-13 06:28N 37°56' E 023°41'0 0.0
2018-Jul-13 05:58N 37°56' E 023°41'0 0.0
2018-Jul-13 05:28N 37°56' E 023°41'0 0.0
2018-Jul-13 04:58N 37°56' E 023°41'0 0.0
2018-Jul-13 04:28N 37°56' E 023°41'0 0.0
2018-Jul-13 03:55N 37°56' E 023°41'0 0.0
2018-Jul-13 03:28N 37°56' E 023°41'0 0.0
2018-Jul-13 02:58N 37°56' E 023°41'0 0.0
2018-Jul-13 02:28N 37°56' E 023°41'0 0.0
2018-Jul-13 01:58N 37°56' E 023°41'0 0.0
2018-Jul-13 01:28N 37°56' E 023°41'0 0.0
2018-Jul-13 00:58N 37°56' E 023°41'0 0.0
2018-Jul-13 00:28N 37°56' E 023°41'0 0.0
2018-Jul-12 23:58N 37°56' E 023°41'0 0.0
2018-Jul-12 23:28N 37°56' E 023°41'0 0.0
2018-Jul-12 22:58N 37°56' E 023°41'0 0.0
2018-Jul-12 22:28N 37°56' E 023°41'0 0.0
2018-Jul-12 21:58N 37°56' E 023°41'0 0.0
2018-Jul-12 21:28N 37°56' E 023°41'0 0.0
2018-Jul-12 20:58N 37°56' E 023°41'0 0.0
2018-Jul-12 20:28N 37°56' E 023°41'0 0.0
2018-Jul-12 19:58N 37°56' E 023°41'0 0.0
2018-Jul-12 19:28N 37°56' E 023°41'0 0.0
2018-Jul-12 18:58N 37°56' E 023°41'0 0.0
2018-Jul-12 18:28N 37°56' E 023°41'0 0.0
2018-Jul-12 17:58N 37°56' E 023°41'0 0.0
2018-Jul-12 17:28N 37°56' E 023°41'0 0.0
2018-Jul-12 16:58N 37°56' E 023°41'0 0.0
2018-Jul-12 16:28N 37°56' E 023°41'0 0.0
2018-Jul-12 15:58N 37°56' E 023°41'0 0.0
2018-Jul-12 15:28N 37°56' E 023°41'0 0.0
2018-Jul-12 14:58N 37°56' E 023°41'0 0.0
2018-Jul-12 14:28N 37°56' E 023°41'0 0.0
2018-Jul-12 13:58N 37°56' E 023°41'0 0.0
2018-Jul-12 13:28N 37°56' E 023°41'0 0.0
2018-Jul-12 12:58N 37°56' E 023°41'0 0.0
2018-Jul-12 12:28N 37°56' E 023°41'0 0.0
2018-Jul-12 11:58N 37°56' E 023°41'0 0.0
2018-Jul-12 11:28N 37°56' E 023°41'0 0.0
2018-Jul-12 10:58N 37°56' E 023°41'0 0.0
2018-Jul-12 10:28N 37°56' E 023°41'0 0.0
2018-Jul-12 09:58N 37°56' E 023°41'0 0.0
2018-Jul-12 09:28N 37°56' E 023°41'0 0.0
2018-Jul-12 08:58N 37°56' E 023°41'0 0.0
2018-Jul-12 08:28N 37°56' E 023°41'0 0.0
2018-Jul-12 07:58N 37°56' E 023°41'0 0.0
2018-Jul-12 07:28N 37°56' E 023°41'0 0.0
2018-Jul-12 06:58N 37°56' E 023°41'0 0.0
2018-Jul-12 06:28N 37°56' E 023°41'0 0.0
2018-Jul-12 05:58N 37°56' E 023°41'0 0.0
2018-Jul-12 05:28N 37°56' E 023°41'0 0.0
2018-Jul-12 04:58N 37°56' E 023°41'0 0.0
2018-Jul-12 04:28N 37°56' E 023°41'0 0.0
2018-Jul-12 03:58N 37°56' E 023°41'0 0.0
2018-Jul-12 03:28N 37°56' E 023°41'0 0.0
2018-Jul-12 02:58N 37°56' E 023°41'0 0.0
2018-Jul-12 02:28N 37°56' E 023°41'0 0.0
2018-Jul-12 01:58N 37°56' E 023°41'0 0.0
2018-Jul-12 01:28N 37°56' E 023°41'0 0.0
2018-Jul-12 00:58N 37°56' E 023°41'0 0.0
2018-Jul-12 00:28N 37°56' E 023°41'0 0.0
2018-Jul-11 23:58N 37°56' E 023°41'0 0.0
2018-Jul-11 23:28N 37°56' E 023°41'0 0.0
2018-Jul-11 22:58N 37°56' E 023°41'0 0.0
2018-Jul-11 22:28N 37°56' E 023°41'0 0.0
2018-Jul-11 21:58N 37°56' E 023°41'0 0.0
2018-Jul-11 21:28N 37°56' E 023°41'0 0.0
2018-Jul-11 20:58N 37°56' E 023°41'0 0.0
2018-Jul-11 20:28N 37°56' E 023°41'0 0.0
2018-Jul-11 19:58N 37°56' E 023°41'0 0.0
2018-Jul-11 19:28N 37°56' E 023°41'0 0.0
2018-Jul-11 18:58N 37°56' E 023°41'0 0.0
2018-Jul-11 18:28N 37°56' E 023°41'0 0.0
2018-Jul-11 17:58N 37°56' E 023°41'0 0.0
2018-Jul-11 17:25N 37°56' E 023°41'0 0.0
2018-Jul-11 16:58N 37°56' E 023°41'0 0.0
2018-Jul-11 16:28N 37°56' E 023°41'0 0.0
2018-Jul-11 15:58N 37°56' E 023°41'0 0.0
2018-Jul-11 15:28N 37°56' E 023°41'0 0.0
2018-Jul-11 14:58N 37°56' E 023°41'0 0.0
2018-Jul-11 14:28N 37°56' E 023°41'0 0.0
2018-Jul-11 13:58N 37°56' E 023°41'0 0.0
2018-Jul-11 13:28N 37°56' E 023°41'0 0.0
2018-Jul-11 12:58N 37°56' E 023°41'0 0.0
2018-Jul-11 12:28N 37°56' E 023°41'0 0.0
2018-Jul-11 11:58N 37°56' E 023°41'0 0.0
2018-Jul-11 11:28N 37°56' E 023°41'0 0.0
2018-Jul-11 10:58N 37°56' E 023°41'0 0.0
2018-Jul-11 10:28N 37°56' E 023°41'0 0.0
2018-Jul-11 09:58N 37°56' E 023°41'0 0.0
2018-Jul-11 09:28N 37°56' E 023°41'0 0.0
2018-Jul-11 08:58N 37°56' E 023°41'0 0.0
2018-Jul-11 08:28N 37°56' E 023°41'0 0.0
2018-Jul-11 07:58N 37°56' E 023°41'0 0.0
2018-Jul-11 07:28N 37°56' E 023°41'0 0.0
2018-Jul-11 06:58N 37°56' E 023°41'0 0.0
2018-Jul-11 06:28N 37°56' E 023°41'0 0.0
2018-Jul-11 05:58N 37°56' E 023°41'0 0.0
2018-Jul-11 05:28N 37°56' E 023°41'0 0.0
2018-Jul-11 04:58N 37°56' E 023°41'0 0.0
2018-Jul-11 04:28N 37°56' E 023°41'0 0.0
2018-Jul-11 03:58N 37°56' E 023°41'0 0.0
2018-Jul-11 03:28N 37°56' E 023°41'0 0.0
2018-Jul-11 02:58N 37°56' E 023°41'0 0.0
2018-Jul-11 02:28N 37°56' E 023°41'0 0.0
2018-Jul-11 01:58N 37°56' E 023°41'0 0.0
2018-Jul-11 01:28N 37°56' E 023°41'0 0.0
2018-Jul-11 00:58N 37°56' E 023°41'0 0.0
2018-Jul-11 00:28N 37°56' E 023°41'0 0.0
2018-Jul-10 23:58N 37°56' E 023°41'0 0.0
2018-Jul-10 23:28N 37°56' E 023°41'0 0.0
2018-Jul-10 22:58N 37°56' E 023°41'0 0.0
2018-Jul-10 22:28N 37°56' E 023°41'0 0.0
2018-Jul-10 21:58N 37°56' E 023°41'0 0.0
2018-Jul-10 21:28N 37°56' E 023°41'0 0.0
2018-Jul-10 20:58N 37°56' E 023°41'0 0.0
2018-Jul-10 20:28N 37°56' E 023°41'0 0.0
2018-Jul-10 19:58N 37°56' E 023°41'0 0.0
2018-Jul-10 19:28N 37°56' E 023°41'0 0.0
2018-Jul-10 18:55N 37°56' E 023°41'0 0.0
2018-Jul-10 18:28N 37°56' E 023°41'0 0.0
2018-Jul-10 17:58N 37°56' E 023°41'0 0.0
2018-Jul-10 17:28N 37°56' E 023°41'0 0.0
2018-Jul-10 16:58N 37°56' E 023°41'0 0.0
2018-Jul-10 16:28N 37°56' E 023°41'0 0.0
2018-Jul-10 15:58N 37°56' E 023°41'0 0.0
2018-Jul-10 15:28N 37°56' E 023°41'0 0.0
2018-Jul-10 14:58N 37°56' E 023°41'0 0.0
2018-Jul-10 14:28N 37°56' E 023°41'0 0.0
2018-Jul-10 13:58N 37°56' E 023°41'0 0.0
2018-Jul-10 13:28N 37°56' E 023°41'0 0.0
2018-Jul-10 12:58N 37°56' E 023°41'0 0.0
2018-Jul-10 12:28N 37°56' E 023°41'0 0.0
2018-Jul-10 11:58N 37°56' E 023°41'0 0.0
2018-Jul-10 11:28N 37°56' E 023°41'0 0.0
2018-Jul-10 10:58N 37°56' E 023°41'0 0.0
2018-Jul-10 10:28N 37°56' E 023°41'0 0.0
2018-Jul-10 09:58N 37°56' E 023°41'0 0.0
2018-Jul-10 09:28N 37°56' E 023°41'0 0.0
2018-Jul-10 08:58N 37°56' E 023°41'0 0.0
2018-Jul-10 08:28N 37°56' E 023°41'0 0.0
2018-Jul-10 07:58N 37°56' E 023°41'0 0.0
2018-Jul-10 07:28N 37°56' E 023°41'0 0.0
2018-Jul-10 06:58N 37°56' E 023°41'0 0.0
2018-Jul-10 06:28N 37°56' E 023°41'0 0.0
2018-Jul-10 05:58N 37°56' E 023°41'0 0.0
2018-Jul-10 05:28N 37°56' E 023°41'0 0.0
2018-Jul-10 04:58N 37°56' E 023°41'0 0.0
2018-Jul-10 04:28N 37°56' E 023°41'0 0.0
2018-Jul-10 03:58N 37°56' E 023°41'0 0.0
2018-Jul-10 03:28N 37°56' E 023°41'0 0.0
2018-Jul-10 02:58N 37°56' E 023°41'0 0.0
2018-Jul-10 02:28N 37°56' E 023°41'0 0.0
2018-Jul-10 01:58N 37°56' E 023°41'0 0.0
2018-Jul-10 01:28N 37°56' E 023°41'0 0.0
2018-Jul-10 00:58N 37°56' E 023°41'0 0.0
2018-Jul-10 00:28N 37°56' E 023°41'0 0.0
2018-Jul-09 23:58N 37°56' E 023°41'0 0.0
2018-Jul-09 23:28N 37°56' E 023°41'0 0.0
2018-Jul-09 22:58N 37°56' E 023°41'0 0.0
2018-Jul-09 22:28N 37°56' E 023°41'0 0.0
2018-Jul-09 21:58N 37°56' E 023°41'0 0.0
2018-Jul-09 21:28N 37°56' E 023°41'0 0.0
2018-Jul-09 20:58N 37°56' E 023°41'0 0.0
2018-Jul-09 20:28N 37°56' E 023°41'0 0.0
2018-Jul-09 19:58N 37°56' E 023°41'0 0.0
2018-Jul-09 19:28N 37°56' E 023°41'0 0.0
2018-Jul-09 18:58N 37°56' E 023°41'0 0.0
2018-Jul-09 18:28N 37°56' E 023°41'0 0.0
2018-Jul-09 17:58N 37°56' E 023°41'0 0.0
2018-Jul-09 17:28N 37°56' E 023°41'0 0.0
2018-Jul-09 16:58N 37°56' E 023°41'0 0.0
2018-Jul-09 16:28N 37°56' E 023°41'0 0.0
2018-Jul-09 15:58N 37°56' E 023°41'0 0.0
2018-Jul-09 15:28N 37°56' E 023°41'0 0.0
2018-Jul-09 14:58N 37°56' E 023°41'0 0.0
2018-Jul-09 14:28N 37°56' E 023°41'0 0.0
2018-Jul-09 13:58N 37°56' E 023°41'0 0.0
2018-Jul-09 13:28N 37°56' E 023°41'0 0.0
2018-Jul-09 12:58N 37°56' E 023°41'0 0.0
2018-Jul-09 12:28N 37°56' E 023°41'0 0.0
2018-Jul-09 11:58N 37°56' E 023°41'0 0.0
2018-Jul-09 11:28N 37°56' E 023°41'0 0.0
2018-Jul-09 10:58N 37°56' E 023°41'0 0.0
2018-Jul-09 10:28N 37°56' E 023°41'0 0.0
2018-Jul-09 09:58N 37°56' E 023°41'0 0.0
2018-Jul-09 09:28N 37°56' E 023°41'0 0.0
2018-Jul-09 08:58N 37°56' E 023°41'0 0.0
2018-Jul-09 08:28N 37°56' E 023°41'0 0.0
2018-Jul-09 07:58N 37°56' E 023°41'0 0.0
2018-Jul-09 07:28N 37°56' E 023°41'0 0.0
2018-Jul-09 06:58N 37°56' E 023°41'0 0.0
2018-Jul-09 06:28N 37°56' E 023°41'0 0.0
2018-Jul-09 05:58N 37°56' E 023°41'0 0.0
2018-Jul-09 05:28N 37°56' E 023°41'0 0.0
2018-Jul-09 04:58N 37°56' E 023°41'0 0.0
2018-Jul-09 04:28N 37°56' E 023°41'0 0.0
2018-Jul-09 03:58N 37°56' E 023°41'0 0.0
2018-Jul-09 03:28N 37°56' E 023°41'0 0.0
2018-Jul-09 02:58N 37°56' E 023°41'0 0.0
2018-Jul-09 02:28N 37°56' E 023°41'0 0.0
2018-Jul-09 01:58N 37°56' E 023°41'0 0.0
2018-Jul-09 01:28N 37°56' E 023°41'0 0.0
2018-Jul-09 00:58N 37°56' E 023°41'0 0.0
2018-Jul-09 00:28N 37°56' E 023°41'0 0.0
2018-Jul-08 23:58N 37°56' E 023°41'0 0.0
2018-Jul-08 23:28N 37°56' E 023°41'0 0.0
2018-Jul-08 22:58N 37°56' E 023°41'0 0.0
2018-Jul-08 22:28N 37°56' E 023°41'0 0.0
2018-Jul-08 21:52N 37°56' E 023°41'0 0.0
2018-Jul-08 21:28N 37°56' E 023°41'0 0.0
2018-Jul-08 20:58N 37°56' E 023°41'0 0.0
2018-Jul-08 20:28N 37°56' E 023°41'0 0.0
2018-Jul-08 19:58N 37°56' E 023°41'0 0.0
2018-Jul-08 19:28N 37°56' E 023°41'0 0.0
2018-Jul-08 18:58N 37°56' E 023°41'0 0.0
2018-Jul-08 18:28N 37°56' E 023°41'0 0.0
2018-Jul-08 17:58N 37°56' E 023°41'0 0.0
2018-Jul-08 17:25N 37°56' E 023°41'0 0.0
2018-Jul-08 16:58N 37°56' E 023°41'0 0.0
2018-Jul-08 16:28N 37°56' E 023°41'0 0.0
2018-Jul-08 15:58N 37°56' E 023°41'0 0.0
2018-Jul-08 15:28N 37°56' E 023°41'0 0.0
2018-Jul-08 14:58N 37°56' E 023°41'0 0.0
2018-Jul-08 14:28N 37°56' E 023°41'0 0.0
2018-Jul-08 13:58N 37°56' E 023°41'0 0.0
2018-Jul-08 13:28N 37°56' E 023°41'0 0.0
2018-Jul-08 12:58N 37°56' E 023°41'0 0.0
2018-Jul-08 12:28N 37°56' E 023°41'0 0.0
2018-Jul-08 11:58N 37°56' E 023°41'0 0.0
2018-Jul-08 11:28N 37°56' E 023°41'0 0.0
2018-Jul-08 10:58N 37°56' E 023°41'0 0.0
2018-Jul-08 10:28N 37°56' E 023°41'0 0.0
2018-Jul-08 09:58N 37°56' E 023°41'0 0.0
2018-Jul-08 09:28N 37°56' E 023°41'0 0.0
2018-Jul-08 08:58N 37°56' E 023°41'0 0.0
2018-Jul-08 08:28N 37°56' E 023°41'0 0.0
2018-Jul-08 07:58N 37°56' E 023°41'0 0.0
2018-Jul-08 07:28N 37°56' E 023°41'0 0.0
2018-Jul-08 06:58N 37°56' E 023°41'0 0.0
2018-Jul-08 06:28N 37°56' E 023°41'0 0.0
2018-Jul-08 05:58N 37°56' E 023°41'0 0.0
2018-Jul-08 05:28N 37°56' E 023°41'0 0.0
2018-Jul-08 04:58N 37°56' E 023°41'0 0.0
2018-Jul-08 04:28N 37°56' E 023°41'0 0.0
2018-Jul-08 03:58N 37°56' E 023°41'0 0.0
2018-Jul-08 03:28N 37°56' E 023°41'0 0.0
2018-Jul-08 02:58N 37°56' E 023°41'0 0.0
2018-Jul-08 02:28N 37°56' E 023°41'0 0.0
2018-Jul-08 01:58N 37°56' E 023°41'0 0.0
2018-Jul-08 01:28N 37°56' E 023°41'0 0.0
2018-Jul-08 00:58N 37°56' E 023°41'0 0.0
2018-Jul-08 00:28N 37°56' E 023°41'0 0.0
2018-Jul-07 23:58N 37°56' E 023°41'0 0.0
2018-Jul-07 23:28N 37°56' E 023°41'0 0.0
2018-Jul-07 22:58N 37°56' E 023°41'0 0.0
2018-Jul-07 22:28N 37°56' E 023°41'0 0.0
2018-Jul-07 21:58N 37°56' E 023°41'0 0.0
2018-Jul-07 21:25N 37°56' E 023°41'0 0.0
2018-Jul-07 20:58N 37°56' E 023°41'0 0.0
2018-Jul-07 20:28N 37°56' E 023°41'0 0.0
2018-Jul-07 19:58N 37°56' E 023°41'0 0.0
2018-Jul-07 19:28N 37°56' E 023°41'0 0.0
2018-Jul-07 18:58N 37°56' E 023°41'0 0.0
2018-Jul-07 18:28N 37°56' E 023°41'0 0.0
2018-Jul-07 17:58N 37°56' E 023°41'0 0.0
2018-Jul-07 17:28N 37°56' E 023°41'0 0.0
2018-Jul-07 16:58N 37°56' E 023°41'0 0.0
2018-Jul-07 16:28N 37°56' E 023°41'0 0.0
2018-Jul-07 15:58N 37°56' E 023°41'0 0.0
2018-Jul-07 15:28N 37°56' E 023°41'0 0.0
2018-Jul-07 14:58N 37°56' E 023°41'0 0.0
2018-Jul-07 14:28N 37°56' E 023°41'0 0.0
2018-Jul-07 13:58N 37°56' E 023°41'0 0.0
2018-Jul-07 13:28N 37°56' E 023°41'0 0.0
2018-Jul-07 12:58N 37°56' E 023°41'0 0.0
2018-Jul-07 12:28N 37°56' E 023°41'0 0.0
2018-Jul-07 11:58N 37°56' E 023°41'0 0.0
2018-Jul-07 11:28N 37°56' E 023°41'0 0.0
2018-Jul-07 10:58N 37°56' E 023°41'0 0.0
2018-Jul-07 10:28N 37°56' E 023°41'0 0.0
2018-Jul-07 09:58N 37°56' E 023°41'0 0.0
2018-Jul-07 09:28N 37°56' E 023°41'0 0.0
2018-Jul-07 08:58N 37°56' E 023°41'0 0.0
2018-Jul-07 08:28N 37°56' E 023°41'0 0.0
2018-Jul-07 07:58N 37°56' E 023°41'0 0.0
2018-Jul-07 07:28N 37°56' E 023°41'0 0.0
2018-Jul-07 06:58N 37°56' E 023°41'0 0.0
2018-Jul-07 06:28N 37°56' E 023°41'0 0.0
2018-Jul-07 05:58N 37°56' E 023°41'0 0.0
2018-Jul-07 05:28N 37°56' E 023°41'0 0.0
2018-Jul-07 04:58N 37°56' E 023°41'0 0.0
2018-Jul-07 04:28N 37°56' E 023°41'0 0.0
2018-Jul-07 03:58N 37°56' E 023°41'0 0.0
2018-Jul-07 03:28N 37°56' E 023°41'0 0.0
2018-Jul-07 02:58N 37°56' E 023°41'0 0.0
2018-Jul-07 02:28N 37°56' E 023°41'0 0.0
2018-Jul-07 01:58N 37°56' E 023°41'0 0.0
2018-Jul-07 01:28N 37°56' E 023°41'0 0.0
2018-Jul-07 00:58N 37°56' E 023°41'0 0.0
2018-Jul-07 00:28N 37°56' E 023°41'0 0.0
2018-Jul-06 23:58N 37°56' E 023°41'0 0.0
2018-Jul-06 23:28N 37°56' E 023°41'0 0.0
2018-Jul-06 22:58N 37°56' E 023°41'0 0.0
2018-Jul-06 22:28N 37°56' E 023°41'0 0.0
2018-Jul-06 21:58N 37°56' E 023°41'0 0.0
2018-Jul-06 21:28N 37°56' E 023°41'0 0.0
2018-Jul-06 20:58N 37°56' E 023°41'0 0.0
2018-Jul-06 20:28N 37°56' E 023°41'0 0.0
2018-Jul-06 19:58N 37°56' E 023°41'0 0.0
2018-Jul-06 19:28N 37°56' E 023°41'0 0.0
2018-Jul-06 18:58N 37°56' E 023°41'0 0.0
2018-Jul-06 18:28N 37°56' E 023°41'0 0.0
2018-Jul-06 17:58N 37°56' E 023°41'0 0.0
2018-Jul-06 17:28N 37°56' E 023°41'0 0.0
2018-Jul-06 16:58N 37°56' E 023°41'0 0.0
2018-Jul-06 16:28N 37°56' E 023°41'0 0.0
2018-Jul-06 15:58N 37°56' E 023°41'0 0.0
2018-Jul-06 15:28N 37°56' E 023°41'0 0.0
2018-Jul-06 14:58N 37°56' E 023°41'0 0.0
2018-Jul-06 14:28N 37°56' E 023°41'0 0.0
2018-Jul-06 13:58N 37°56' E 023°41'0 0.0
2018-Jul-06 13:28N 37°56' E 023°41'0 0.0
2018-Jul-06 12:58N 37°56' E 023°41'0 0.0
2018-Jul-06 12:28N 37°56' E 023°41'0 0.0
2018-Jul-06 05:46N 37°56' E 023°41'0 0.0
2018-Jul-06 05:28N 37°56' E 023°41'0 0.0
2018-Jul-06 04:58N 37°56' E 023°41'0 0.0
2018-Jul-06 04:28N 37°56' E 023°41'0 0.0
2018-Jul-06 03:58N 37°56' E 023°41'0 0.0
2018-Jul-06 03:28N 37°56' E 023°41'0 0.0
2018-Jul-06 02:58N 37°56' E 023°41'0 0.0
2018-Jul-06 02:28N 37°56' E 023°41'0 0.0
2018-Jul-06 01:58N 37°56' E 023°41'0 0.0
2018-Jul-06 01:28N 37°56' E 023°41'0 0.0
2018-Jul-06 00:58N 37°56' E 023°41'0 0.0
2018-Jul-06 00:28N 37°56' E 023°41'0 0.0
2018-Jul-05 23:58N 37°56' E 023°41'0 0.0
2018-Jul-05 23:28N 37°56' E 023°41'0 0.0
2018-Jul-05 22:58N 37°56' E 023°41'0 0.0
2018-Jul-05 22:28N 37°56' E 023°41'0 0.0
2018-Jul-05 21:58N 37°56' E 023°41'0 0.0
2018-Jul-05 21:28N 37°56' E 023°41'0 0.0
2018-Jul-05 20:58N 37°56' E 023°41'0 0.0
2018-Jul-05 20:28N 37°56' E 023°41'0 0.0
2018-Jul-05 19:58N 37°56' E 023°41'0 0.0
2018-Jul-05 19:28N 37°56' E 023°41'0 0.0
2018-Jul-05 18:58N 37°56' E 023°41'0 0.0
2018-Jul-05 18:28N 37°56' E 023°41'0 0.0
2018-Jul-05 17:58N 37°56' E 023°41'0 0.0
2018-Jul-05 17:28N 37°56' E 023°41'0 0.0
2018-Jul-05 16:58N 37°56' E 023°41'0 0.0
2018-Jul-05 16:28N 37°56' E 023°41'0 0.0
2018-Jul-05 15:58N 37°56' E 023°41'0 0.0
2018-Jul-05 15:28N 37°56' E 023°41'0 0.0
2018-Jul-05 14:58N 37°56' E 023°41'0 0.0
2018-Jul-05 14:28N 37°56' E 023°41'0 0.0
2018-Jul-05 13:28N 37°56' E 023°41'0 0.0
2018-Jul-05 12:58N 37°56' E 023°41'0 0.0
2018-Jul-05 12:28N 37°56' E 023°41'0 0.0
2018-Jul-05 11:58N 37°56' E 023°41'0 0.0
2018-Jul-05 11:28N 37°56' E 023°41'0 0.0
2018-Jul-05 10:58N 37°56' E 023°41'0 0.0
2018-Jul-05 10:28N 37°56' E 023°41'0 0.0
2018-Jul-05 09:58N 37°56' E 023°41'0 0.0
2018-Jul-05 09:27N 37°56' E 023°41'0 0.0
2018-Jul-05 09:00N 37°56' E 023°41'0 0.0
2018-Jul-05 08:30N 37°56' E 023°41'0 0.0
2018-Jul-05 08:00N 37°56' E 023°41'0 0.0
2018-Jul-05 07:30N 37°56' E 023°41'0 0.0
2018-Jul-05 07:00N 37°56' E 023°41'0 0.0
2018-Jul-05 06:30N 37°56' E 023°41'0 0.0
2018-Jul-05 06:00N 37°56' E 023°41'0 0.0
2018-Jul-05 05:30N 37°56' E 023°41'0 0.0
2018-Jul-05 05:00N 37°56' E 023°41'0 0.0
2018-Jul-05 04:30N 37°56' E 023°41'0 0.0
2018-Jul-05 04:00N 37°56' E 023°41'0 0.0
2018-Jul-05 03:30N 37°56' E 023°41'0 0.0
2018-Jul-05 03:00N 37°56' E 023°41'0 0.0
2018-Jul-05 02:30N 37°56' E 023°41'0 0.0
2018-Jul-05 02:00N 37°56' E 023°41'0 0.0
2018-Jul-05 01:30N 37°56' E 023°41'0 0.0
2018-Jul-05 01:00N 37°56' E 023°41'0 0.0
2018-Jul-05 00:30N 37°56' E 023°41'0 0.0
2018-Jul-05 00:00N 37°56' E 023°41'0 0.0
2018-Jul-04 23:30N 37°56' E 023°41'0 0.0
2018-Jul-04 23:00N 37°56' E 023°41'0 0.0
2018-Jul-04 22:30N 37°56' E 023°41'0 0.0
2018-Jul-04 22:00N 37°56' E 023°41'0 0.0
2018-Jul-04 21:30N 37°56' E 023°41'0 0.0
2018-Jul-04 21:00N 37°56' E 023°41'0 0.0
2018-Jul-04 20:30N 37°56' E 023°41'0 0.0
2018-Jul-04 20:00N 37°56' E 023°41'0 0.0
2018-Jul-04 19:30N 37°56' E 023°41'0 0.0
2018-Jul-04 19:00N 37°56' E 023°41'0 0.0
2018-Jul-04 18:30N 37°56' E 023°41'0 0.0
2018-Jul-04 18:00N 37°56' E 023°41'0 0.0
2018-Jul-04 17:30N 37°56' E 023°41'0 0.0
2018-Jul-04 17:00N 37°56' E 023°41'0 0.0
2018-Jul-04 16:30N 37°56' E 023°41'0 0.0
2018-Jul-04 16:00N 37°56' E 023°41'0 0.0
2018-Jul-04 15:30N 37°56' E 023°41'0 0.0
2018-Jul-04 15:00N 37°56' E 023°41'0 0.0
2018-Jul-04 14:30N 37°56' E 023°41'0 0.0
2018-Jul-04 14:00N 37°56' E 023°41'0 0.0
2018-Jul-04 13:30N 37°56' E 023°41'0 0.0
2018-Jul-04 13:00N 37°56' E 023°41'0 0.0
2018-Jul-04 12:30N 37°56' E 023°41'0 0.0
2018-Jul-04 12:00N 37°56' E 023°41'0 0.0
2018-Jul-04 11:30N 37°56' E 023°41'0 0.0
2018-Jul-04 11:00N 37°56' E 023°41'0 0.0
2018-Jul-04 10:27N 37°56' E 023°41'0 0.0
2018-Jul-04 10:00N 37°56' E 023°41'  
Track history (hours):
 
Tides and Currents Weather Stations Pressure Air Temp Water Temp Dewpoint Dewpoint Depression Visibility Wind Speed Wind Dir Waves Ship Positions

Alma Libre Too Cowes

Last reported at 2018-Jul-14 09:31 UTC. Time now 2018-Aug-19 22:54 UTC.
Position N 37°59' E 022°54'.
Warning: this ship's position is 36 days out of date.

Length 17 m.

Type: Other ship. MMSI: 235118446.

Date/timePositionNaut miles runAvg speedWind from/ knotsBaromVisibWave heightAir tempDewpointWater temp
2018-Jul-14 09:31N 37°59' E 022°54'3 7.2
2018-Jul-14 09:05N 37°58' E 022°57'1 6.3
2018-Jul-14 09:00N 37°57' E 022°57'3 6.6
2018-Jul-14 08:31N 37°55' E 023°00'0 0.2
2018-Jul-14 07:59N 37°55' E 023°01'2 4.9
2018-Jul-14 07:30N 37°54' E 023°03'4 7.1
2018-Jul-14 07:00N 37°54' E 023°08'3 6.7
2018-Jul-14 06:30N 37°53' E 023°12'4 6.7
2018-Jul-14 05:59N 37°53' E 023°16'4 6.9
2018-Jul-14 05:22N 37°52' E 023°22'3 7.3
2018-Jul-14 05:00N 37°52' E 023°25'4 7.3
2018-Jul-14 04:30N 37°52' E 023°30'3 6.9
2018-Jul-14 04:00N 37°53' E 023°34'4 7.1
2018-Jul-14 03:29N 37°55' E 023°38'2 4.4
2018-Jul-14 02:55N 37°56' E 023°41'0 0.0
2018-Jul-14 02:28N 37°56' E 023°41'0 0.0
2018-Jul-14 01:58N 37°56' E 023°41'0 0.0
2018-Jul-14 01:28N 37°56' E 023°41'0 0.0
2018-Jul-14 00:58N 37°56' E 023°41'0 0.0
2018-Jul-14 00:28N 37°56' E 023°41'0 0.0
2018-Jul-13 23:58N 37°56' E 023°41'0 0.0
2018-Jul-13 23:28N 37°56' E 023°41'0 0.0
2018-Jul-13 22:58N 37°56' E 023°41'0 0.0
2018-Jul-13 22:28N 37°56' E 023°41'0 0.0
2018-Jul-13 21:58N 37°56' E 023°41'0 0.0
2018-Jul-13 21:28N 37°56' E 023°41'0 0.0
2018-Jul-13 20:58N 37°56' E 023°41'0 0.0
2018-Jul-13 20:28N 37°56' E 023°41'0 0.0
2018-Jul-13 19:55N 37°56' E 023°41'0 0.0
2018-Jul-13 19:28N 37°56' E 023°41'0 0.0
2018-Jul-13 18:58N 37°56' E 023°41'0 0.0
2018-Jul-13 18:28N 37°56' E 023°41'0 0.0
2018-Jul-13 17:58N 37°56' E 023°41'0 0.0
2018-Jul-13 17:28N 37°56' E 023°41'0 0.0
2018-Jul-13 16:58N 37°56' E 023°41'0 0.0
2018-Jul-13 16:28N 37°56' E 023°41'0 0.0
2018-Jul-13 15:58N 37°56' E 023°41'0 0.0
2018-Jul-13 15:28N 37°56' E 023°41'0 0.0
2018-Jul-13 14:58N 37°56' E 023°41'0 0.0
2018-Jul-13 14:28N 37°56' E 023°41'0 0.0
2018-Jul-13 13:28N 37°56' E 023°41'0 0.0
2018-Jul-13 12:58N 37°56' E 023°41'0 0.0
2018-Jul-13 12:28N 37°56' E 023°41'0 0.0
2018-Jul-13 11:58N 37°56' E 023°41'0 0.0
2018-Jul-13 11:25N 37°56' E 023°41'0 0.0
2018-Jul-13 10:55N 37°56' E 023°41'0 0.0
2018-Jul-13 10:28N 37°56' E 023°41'0 0.0
2018-Jul-13 09:58N 37°56' E 023°41'0 0.0
2018-Jul-13 09:28N 37°56' E 023°41'0 0.0
2018-Jul-13 08:58N 37°56' E 023°41'0 0.0
2018-Jul-13 08:28N 37°56' E 023°41'0 0.0
2018-Jul-13 07:58N 37°56' E 023°41'0 0.0
2018-Jul-13 07:28N 37°56' E 023°41'0 0.0
2018-Jul-13 06:58N 37°56' E 023°41'0 0.0
2018-Jul-13 06:28N 37°56' E 023°41'0 0.0
2018-Jul-13 05:58N 37°56' E 023°41'0 0.0
2018-Jul-13 05:28N 37°56' E 023°41'0 0.0
2018-Jul-13 04:58N 37°56' E 023°41'0 0.0
2018-Jul-13 04:28N 37°56' E 023°41'0 0.0
2018-Jul-13 03:55N 37°56' E 023°41'0 0.0
2018-Jul-13 03:28N 37°56' E 023°41'0 0.0
2018-Jul-13 02:58N 37°56' E 023°41'0 0.0
2018-Jul-13 02:28N 37°56' E 023°41'0 0.0
2018-Jul-13 01:58N 37°56' E 023°41'0 0.0
2018-Jul-13 01:28N 37°56' E 023°41'0 0.0
2018-Jul-13 00:58N 37°56' E 023°41'0 0.0
2018-Jul-13 00:28N 37°56' E 023°41'0 0.0
2018-Jul-12 23:58N 37°56' E 023°41'0 0.0
2018-Jul-12 23:28N 37°56' E 023°41'0 0.0
2018-Jul-12 22:58N 37°56' E 023°41'0 0.0
2018-Jul-12 22:28N 37°56' E 023°41'0 0.0
2018-Jul-12 21:58N 37°56' E 023°41'0 0.0
2018-Jul-12 21:28N 37°56' E 023°41'0 0.0
2018-Jul-12 20:58N 37°56' E 023°41'0 0.0
2018-Jul-12 20:28N 37°56' E 023°41'0 0.0
2018-Jul-12 19:58N 37°56' E 023°41'0 0.0
2018-Jul-12 19:28N 37°56' E 023°41'0 0.0
2018-Jul-12 18:58N 37°56' E 023°41'0 0.0
2018-Jul-12 18:28N 37°56' E 023°41'0 0.0
2018-Jul-12 17:58N 37°56' E 023°41'0 0.0
2018-Jul-12 17:28N 37°56' E 023°41'0 0.0
2018-Jul-12 16:58N 37°56' E 023°41'0 0.0
2018-Jul-12 16:28N 37°56' E 023°41'0 0.0
2018-Jul-12 15:58N 37°56' E 023°41'0 0.0
2018-Jul-12 15:28N 37°56' E 023°41'0 0.0
2018-Jul-12 14:58N 37°56' E 023°41'0 0.0
2018-Jul-12 14:28N 37°56' E 023°41'0 0.0
2018-Jul-12 13:58N 37°56' E 023°41'0 0.0
2018-Jul-12 13:28N 37°56' E 023°41'0 0.0
2018-Jul-12 12:58N 37°56' E 023°41'0 0.0
2018-Jul-12 12:28N 37°56' E 023°41'0 0.0
2018-Jul-12 11:58N 37°56' E 023°41'0 0.0
2018-Jul-12 11:28N 37°56' E 023°41'0 0.0
2018-Jul-12 10:58N 37°56' E 023°41'0 0.0
2018-Jul-12 10:28N 37°56' E 023°41'0 0.0
2018-Jul-12 09:58N 37°56' E 023°41'0 0.0
2018-Jul-12 09:28N 37°56' E 023°41'0 0.0
2018-Jul-12 08:58N 37°56' E 023°41'0 0.0
2018-Jul-12 08:28N 37°56' E 023°41'0 0.0
2018-Jul-12 07:58N 37°56' E 023°41'0 0.0
2018-Jul-12 07:28N 37°56' E 023°41'0 0.0
2018-Jul-12 06:58N 37°56' E 023°41'0 0.0
2018-Jul-12 06:28N 37°56' E 023°41'0 0.0
2018-Jul-12 05:58N 37°56' E 023°41'0 0.0
2018-Jul-12 05:28N 37°56' E 023°41'0 0.0
2018-Jul-12 04:58N 37°56' E 023°41'0 0.0
2018-Jul-12 04:28N 37°56' E 023°41'0 0.0
2018-Jul-12 03:58N 37°56' E 023°41'0 0.0
2018-Jul-12 03:28N 37°56' E 023°41'0 0.0
2018-Jul-12 02:58N 37°56' E 023°41'0 0.0
2018-Jul-12 02:28N 37°56' E 023°41'0 0.0
2018-Jul-12 01:58N 37°56' E 023°41'0 0.0
2018-Jul-12 01:28N 37°56' E 023°41'0 0.0
2018-Jul-12 00:58N 37°56' E 023°41'0 0.0
2018-Jul-12 00:28N 37°56' E 023°41'0 0.0
2018-Jul-11 23:58N 37°56' E 023°41'0 0.0
2018-Jul-11 23:28N 37°56' E 023°41'0 0.0
2018-Jul-11 22:58N 37°56' E 023°41'0 0.0
2018-Jul-11 22:28N 37°56' E 023°41'0 0.0
2018-Jul-11 21:58N 37°56' E 023°41'0 0.0
2018-Jul-11 21:28N 37°56' E 023°41'0 0.0
2018-Jul-11 20:58N 37°56' E 023°41'0 0.0
2018-Jul-11 20:28N 37°56' E 023°41'0 0.0
2018-Jul-11 19:58N 37°56' E 023°41'0 0.0
2018-Jul-11 19:28N 37°56' E 023°41'0 0.0
2018-Jul-11 18:58N 37°56' E 023°41'0 0.0
2018-Jul-11 18:28N 37°56' E 023°41'0 0.0
2018-Jul-11 17:58N 37°56' E 023°41'0 0.0
2018-Jul-11 17:25N 37°56' E 023°41'0 0.0
2018-Jul-11 16:58N 37°56' E 023°41'0 0.0
2018-Jul-11 16:28N 37°56' E 023°41'0 0.0
2018-Jul-11 15:58N 37°56' E 023°41'0 0.0
2018-Jul-11 15:28N 37°56' E 023°41'0 0.0
2018-Jul-11 14:58N 37°56' E 023°41'0 0.0
2018-Jul-11 14:28N 37°56' E 023°41'0 0.0
2018-Jul-11 13:58N 37°56' E 023°41'0 0.0
2018-Jul-11 13:28N 37°56' E 023°41'0 0.0
2018-Jul-11 12:58N 37°56' E 023°41'0 0.0
2018-Jul-11 12:28N 37°56' E 023°41'0 0.0
2018-Jul-11 11:58N 37°56' E 023°41'0 0.0
2018-Jul-11 11:28N 37°56' E 023°41'0 0.0
2018-Jul-11 10:58N 37°56' E 023°41'0 0.0
2018-Jul-11 10:28N 37°56' E 023°41'0 0.0
2018-Jul-11 09:58N 37°56' E 023°41'0 0.0
2018-Jul-11 09:28N 37°56' E 023°41'0 0.0
2018-Jul-11 08:58N 37°56' E 023°41'0 0.0
2018-Jul-11 08:28N 37°56' E 023°41'0 0.0
2018-Jul-11 07:58N 37°56' E 023°41'0 0.0
2018-Jul-11 07:28N 37°56' E 023°41'0 0.0
2018-Jul-11 06:58N 37°56' E 023°41'0 0.0
2018-Jul-11 06:28N 37°56' E 023°41'0 0.0
2018-Jul-11 05:58N 37°56' E 023°41'0 0.0
2018-Jul-11 05:28N 37°56' E 023°41'0 0.0
2018-Jul-11 04:58N 37°56' E 023°41'0 0.0
2018-Jul-11 04:28N 37°56' E 023°41'0 0.0
2018-Jul-11 03:58N 37°56' E 023°41'0 0.0
2018-Jul-11 03:28N 37°56' E 023°41'0 0.0
2018-Jul-11 02:58N 37°56' E 023°41'0 0.0
2018-Jul-11 02:28N 37°56' E 023°41'0 0.0
2018-Jul-11 01:58N 37°56' E 023°41'0 0.0
2018-Jul-11 01:28N 37°56' E 023°41'0 0.0
2018-Jul-11 00:58N 37°56' E 023°41'0 0.0
2018-Jul-11 00:28N 37°56' E 023°41'0 0.0
2018-Jul-10 23:58N 37°56' E 023°41'0 0.0
2018-Jul-10 23:28N 37°56' E 023°41'0 0.0
2018-Jul-10 22:58N 37°56' E 023°41'0 0.0
2018-Jul-10 22:28N 37°56' E 023°41'0 0.0
2018-Jul-10 21:58N 37°56' E 023°41'0 0.0
2018-Jul-10 21:28N 37°56' E 023°41'0 0.0
2018-Jul-10 20:58N 37°56' E 023°41'0 0.0
2018-Jul-10 20:28N 37°56' E 023°41'0 0.0
2018-Jul-10 19:58N 37°56' E 023°41'0 0.0
2018-Jul-10 19:28N 37°56' E 023°41'0 0.0
2018-Jul-10 18:55N 37°56' E 023°41'0 0.0
2018-Jul-10 18:28N 37°56' E 023°41'0 0.0
2018-Jul-10 17:58N 37°56' E 023°41'0 0.0
2018-Jul-10 17:28N 37°56' E 023°41'0 0.0
2018-Jul-10 16:58N 37°56' E 023°41'0 0.0
2018-Jul-10 16:28N 37°56' E 023°41'0 0.0
2018-Jul-10 15:58N 37°56' E 023°41'0 0.0
2018-Jul-10 15:28N 37°56' E 023°41'0 0.0
2018-Jul-10 14:58N 37°56' E 023°41'0 0.0
2018-Jul-10 14:28N 37°56' E 023°41'0 0.0
2018-Jul-10 13:58N 37°56' E 023°41'0 0.0
2018-Jul-10 13:28N 37°56' E 023°41'0 0.0
2018-Jul-10 12:58N 37°56' E 023°41'0 0.0
2018-Jul-10 12:28N 37°56' E 023°41'0 0.0
2018-Jul-10 11:58N 37°56' E 023°41'0 0.0
2018-Jul-10 11:28N 37°56' E 023°41'0 0.0
2018-Jul-10 10:58N 37°56' E 023°41'0 0.0
2018-Jul-10 10:28N 37°56' E 023°41'0 0.0
2018-Jul-10 09:58N 37°56' E 023°41'0 0.0
2018-Jul-10 09:28N 37°56' E 023°41'0 0.0
2018-Jul-10 08:58N 37°56' E 023°41'0 0.0
2018-Jul-10 08:28N 37°56' E 023°41'0 0.0
2018-Jul-10 07:58N 37°56' E 023°41'0 0.0
2018-Jul-10 07:28N 37°56' E 023°41'0 0.0
2018-Jul-10 06:58N 37°56' E 023°41'0 0.0
2018-Jul-10 06:28N 37°56' E 023°41'0 0.0
2018-Jul-10 05:58N 37°56' E 023°41'0 0.0
2018-Jul-10 05:28N 37°56' E 023°41'0 0.0
2018-Jul-10 04:58N 37°56' E 023°41'0 0.0
2018-Jul-10 04:28N 37°56' E 023°41'0 0.0
2018-Jul-10 03:58N 37°56' E 023°41'0 0.0
2018-Jul-10 03:28N 37°56' E 023°41'0 0.0
2018-Jul-10 02:58N 37°56' E 023°41'0 0.0
2018-Jul-10 02:28N 37°56' E 023°41'0 0.0
2018-Jul-10 01:58N 37°56' E 023°41'0 0.0
2018-Jul-10 01:28N 37°56' E 023°41'0 0.0
2018-Jul-10 00:58N 37°56' E 023°41'0 0.0
2018-Jul-10 00:28N 37°56' E 023°41'0 0.0
2018-Jul-09 23:58N 37°56' E 023°41'0 0.0
2018-Jul-09 23:28N 37°56' E 023°41'0 0.0
2018-Jul-09 22:58N 37°56' E 023°41'0 0.0
2018-Jul-09 22:28N 37°56' E 023°41'0 0.0
2018-Jul-09 21:58N 37°56' E 023°41'0 0.0
2018-Jul-09 21:28N 37°56' E 023°41'0 0.0
2018-Jul-09 20:58N 37°56' E 023°41'0 0.0
2018-Jul-09 20:28N 37°56' E 023°41'0 0.0
2018-Jul-09 19:58N 37°56' E 023°41'0 0.0
2018-Jul-09 19:28N 37°56' E 023°41'0 0.0
2018-Jul-09 18:58N 37°56' E 023°41'0 0.0
2018-Jul-09 18:28N 37°56' E 023°41'0 0.0
2018-Jul-09 17:58N 37°56' E 023°41'0 0.0
2018-Jul-09 17:28N 37°56' E 023°41'0 0.0
2018-Jul-09 16:58N 37°56' E 023°41'0 0.0
2018-Jul-09 16:28N 37°56' E 023°41'0 0.0
2018-Jul-09 15:58N 37°56' E 023°41'0 0.0
2018-Jul-09 15:28N 37°56' E 023°41'0 0.0
2018-Jul-09 14:58N 37°56' E 023°41'0 0.0
2018-Jul-09 14:28N 37°56' E 023°41'0 0.0
2018-Jul-09 13:58N 37°56' E 023°41'0 0.0
2018-Jul-09 13:28N 37°56' E 023°41'0 0.0
2018-Jul-09 12:58N 37°56' E 023°41'0 0.0
2018-Jul-09 12:28N 37°56' E 023°41'0 0.0
2018-Jul-09 11:58N 37°56' E 023°41'0 0.0
2018-Jul-09 11:28N 37°56' E 023°41'0 0.0
2018-Jul-09 10:58N 37°56' E 023°41'0 0.0
2018-Jul-09 10:28N 37°56' E 023°41'0 0.0
2018-Jul-09 09:58N 37°56' E 023°41'0 0.0
2018-Jul-09 09:28N 37°56' E 023°41'0 0.0
2018-Jul-09 08:58N 37°56' E 023°41'0 0.0
2018-Jul-09 08:28N 37°56' E 023°41'0 0.0
2018-Jul-09 07:58N 37°56' E 023°41'0 0.0
2018-Jul-09 07:28N 37°56' E 023°41'0 0.0
2018-Jul-09 06:58N 37°56' E 023°41'0 0.0
2018-Jul-09 06:28N 37°56' E 023°41'0 0.0
2018-Jul-09 05:58N 37°56' E 023°41'0 0.0
2018-Jul-09 05:28N 37°56' E 023°41'0 0.0
2018-Jul-09 04:58N 37°56' E 023°41'0 0.0
2018-Jul-09 04:28N 37°56' E 023°41'0 0.0
2018-Jul-09 03:58N 37°56' E 023°41'0 0.0
2018-Jul-09 03:28N 37°56' E 023°41'0 0.0
2018-Jul-09 02:58N 37°56' E 023°41'0 0.0
2018-Jul-09 02:28N 37°56' E 023°41'0 0.0
2018-Jul-09 01:58N 37°56' E 023°41'0 0.0
2018-Jul-09 01:28N 37°56' E 023°41'0 0.0
2018-Jul-09 00:58N 37°56' E 023°41'0 0.0
2018-Jul-09 00:28N 37°56' E 023°41'0 0.0
2018-Jul-08 23:58N 37°56' E 023°41'0 0.0
2018-Jul-08 23:28N 37°56' E 023°41'0 0.0
2018-Jul-08 22:58N 37°56' E 023°41'0 0.0
2018-Jul-08 22:28N 37°56' E 023°41'0 0.0
2018-Jul-08 21:52N 37°56' E 023°41'0 0.0
2018-Jul-08 21:28N 37°56' E 023°41'0 0.0
2018-Jul-08 20:58N 37°56' E 023°41'0 0.0
2018-Jul-08 20:28N 37°56' E 023°41'0 0.0
2018-Jul-08 19:58N 37°56' E 023°41'0 0.0
2018-Jul-08 19:28N 37°56' E 023°41'0 0.0
2018-Jul-08 18:58N 37°56' E 023°41'0 0.0
2018-Jul-08 18:28N 37°56' E 023°41'0 0.0
2018-Jul-08 17:58N 37°56' E 023°41'0 0.0
2018-Jul-08 17:25N 37°56' E 023°41'0 0.0
2018-Jul-08 16:58N 37°56' E 023°41'0 0.0
2018-Jul-08 16:28N 37°56' E 023°41'0 0.0
2018-Jul-08 15:58N 37°56' E 023°41'0 0.0
2018-Jul-08 15:28N 37°56' E 023°41'0 0.0
2018-Jul-08 14:58N 37°56' E 023°41'0 0.0
2018-Jul-08 14:28N 37°56' E 023°41'0 0.0
2018-Jul-08 13:58N 37°56' E 023°41'0 0.0
2018-Jul-08 13:28N 37°56' E 023°41'0 0.0
2018-Jul-08 12:58N 37°56' E 023°41'0 0.0
2018-Jul-08 12:28N 37°56' E 023°41'0 0.0
2018-Jul-08 11:58N 37°56' E 023°41'0 0.0
2018-Jul-08 11:28N 37°56' E 023°41'0 0.0
2018-Jul-08 10:58N 37°56' E 023°41'0 0.0
2018-Jul-08 10:28N 37°56' E 023°41'0 0.0
2018-Jul-08 09:58N 37°56' E 023°41'0 0.0
2018-Jul-08 09:28N 37°56' E 023°41'0 0.0
2018-Jul-08 08:58N 37°56' E 023°41'0 0.0
2018-Jul-08 08:28N 37°56' E 023°41'0 0.0
2018-Jul-08 07:58N 37°56' E 023°41'0 0.0
2018-Jul-08 07:28N 37°56' E 023°41'0 0.0
2018-Jul-08 06:58N 37°56' E 023°41'0 0.0
2018-Jul-08 06:28N 37°56' E 023°41'0 0.0
2018-Jul-08 05:58N 37°56' E 023°41'0 0.0
2018-Jul-08 05:28N 37°56' E 023°41'0 0.0
2018-Jul-08 04:58N 37°56' E 023°41'0 0.0
2018-Jul-08 04:28N 37°56' E 023°41'0 0.0
2018-Jul-08 03:58N 37°56' E 023°41'0 0.0
2018-Jul-08 03:28N 37°56' E 023°41'0 0.0
2018-Jul-08 02:58N 37°56' E 023°41'0 0.0
2018-Jul-08 02:28N 37°56' E 023°41'0 0.0
2018-Jul-08 01:58N 37°56' E 023°41'0 0.0
2018-Jul-08 01:28N 37°56' E 023°41'0 0.0
2018-Jul-08 00:58N 37°56' E 023°41'0 0.0
2018-Jul-08 00:28N 37°56' E 023°41'0 0.0
2018-Jul-07 23:58N 37°56' E 023°41'0 0.0
2018-Jul-07 23:28N 37°56' E 023°41'0 0.0
2018-Jul-07 22:58N 37°56' E 023°41'0 0.0
2018-Jul-07 22:28N 37°56' E 023°41'0 0.0
2018-Jul-07 21:58N 37°56' E 023°41'0 0.0
2018-Jul-07 21:25N 37°56' E 023°41'0 0.0
2018-Jul-07 20:58N 37°56' E 023°41'0 0.0
2018-Jul-07 20:28N 37°56' E 023°41'0 0.0
2018-Jul-07 19:58N 37°56' E 023°41'0 0.0
2018-Jul-07 19:28N 37°56' E 023°41'0 0.0
2018-Jul-07 18:58N 37°56' E 023°41'0 0.0
2018-Jul-07 18:28N 37°56' E 023°41'0 0.0
2018-Jul-07 17:58N 37°56' E 023°41'0 0.0
2018-Jul-07 17:28N 37°56' E 023°41'0 0.0
2018-Jul-07 16:58N 37°56' E 023°41'0 0.0
2018-Jul-07 16:28N 37°56' E 023°41'0 0.0
2018-Jul-07 15:58N 37°56' E 023°41'0 0.0
2018-Jul-07 15:28N 37°56' E 023°41'0 0.0
2018-Jul-07 14:58N 37°56' E 023°41'0 0.0
2018-Jul-07 14:28N 37°56' E 023°41'0 0.0
2018-Jul-07 13:58N 37°56' E 023°41'0 0.0
2018-Jul-07 13:28N 37°56' E 023°41'0 0.0
2018-Jul-07 12:58N 37°56' E 023°41'0 0.0
2018-Jul-07 12:28N 37°56' E 023°41'0 0.0
2018-Jul-07 11:58N 37°56' E 023°41'0 0.0
2018-Jul-07 11:28N 37°56' E 023°41'0 0.0
2018-Jul-07 10:58N 37°56' E 023°41'0 0.0
2018-Jul-07 10:28N 37°56' E 023°41'0 0.0
2018-Jul-07 09:58N 37°56' E 023°41'0 0.0
2018-Jul-07 09:28N 37°56' E 023°41'0 0.0
2018-Jul-07 08:58N 37°56' E 023°41'0 0.0
2018-Jul-07 08:28N 37°56' E 023°41'0 0.0
2018-Jul-07 07:58N 37°56' E 023°41'0 0.0
2018-Jul-07 07:28N 37°56' E 023°41'0 0.0
2018-Jul-07 06:58N 37°56' E 023°41'0 0.0
2018-Jul-07 06:28N 37°56' E 023°41'0 0.0
2018-Jul-07 05:58N 37°56' E 023°41'0 0.0
2018-Jul-07 05:28N 37°56' E 023°41'0 0.0
2018-Jul-07 04:58N 37°56' E 023°41'0 0.0
2018-Jul-07 04:28N 37°56' E 023°41'0 0.0
2018-Jul-07 03:58N 37°56' E 023°41'0 0.0
2018-Jul-07 03:28N 37°56' E 023°41'0 0.0
2018-Jul-07 02:58N 37°56' E 023°41'0 0.0
2018-Jul-07 02:28N 37°56' E 023°41'0 0.0
2018-Jul-07 01:58N 37°56' E 023°41'0 0.0
2018-Jul-07 01:28N 37°56' E 023°41'0 0.0
2018-Jul-07 00:58N 37°56' E 023°41'0 0.0
2018-Jul-07 00:28N 37°56' E 023°41'0 0.0
2018-Jul-06 23:58N 37°56' E 023°41'0 0.0
2018-Jul-06 23:28N 37°56' E 023°41'0 0.0
2018-Jul-06 22:58N 37°56' E 023°41'0 0.0
2018-Jul-06 22:28N 37°56' E 023°41'0 0.0
2018-Jul-06 21:58N 37°56' E 023°41'0 0.0
2018-Jul-06 21:28N 37°56' E 023°41'0 0.0
2018-Jul-06 20:58N 37°56' E 023°41'0 0.0
2018-Jul-06 20:28N 37°56' E 023°41'0 0.0
2018-Jul-06 19:58N 37°56' E 023°41'0 0.0
2018-Jul-06 19:28N 37°56' E 023°41'0 0.0
2018-Jul-06 18:58N 37°56' E 023°41'0 0.0
2018-Jul-06 18:28N 37°56' E 023°41'0 0.0
2018-Jul-06 17:58N 37°56' E 023°41'0 0.0
2018-Jul-06 17:28N 37°56' E 023°41'0 0.0
2018-Jul-06 16:58N 37°56' E 023°41'0 0.0
2018-Jul-06 16:28N 37°56' E 023°41'0 0.0
2018-Jul-06 15:58N 37°56' E 023°41'0 0.0
2018-Jul-06 15:28N 37°56' E 023°41'0 0.0
2018-Jul-06 14:58N 37°56' E 023°41'0 0.0
2018-Jul-06 14:28N 37°56' E 023°41'0 0.0
2018-Jul-06 13:58N 37°56' E 023°41'0 0.0
2018-Jul-06 13:28N 37°56' E 023°41'0 0.0
2018-Jul-06 12:58N 37°56' E 023°41'0 0.0
2018-Jul-06 12:28N 37°56' E 023°41'0 0.0
2018-Jul-06 05:46N 37°56' E 023°41'0 0.0
2018-Jul-06 05:28N 37°56' E 023°41'0 0.0
2018-Jul-06 04:58N 37°56' E 023°41'0 0.0
2018-Jul-06 04:28N 37°56' E 023°41'0 0.0
2018-Jul-06 03:58N 37°56' E 023°41'0 0.0
2018-Jul-06 03:28N 37°56' E 023°41'0 0.0
2018-Jul-06 02:58N 37°56' E 023°41'0 0.0
2018-Jul-06 02:28N 37°56' E 023°41'0 0.0
2018-Jul-06 01:58N 37°56' E 023°41'0 0.0
2018-Jul-06 01:28N 37°56' E 023°41'0 0.0
2018-Jul-06 00:58N 37°56' E 023°41'0 0.0
2018-Jul-06 00:28N 37°56' E 023°41'0 0.0
2018-Jul-05 23:58N 37°56' E 023°41'0 0.0
2018-Jul-05 23:28N 37°56' E 023°41'0 0.0
2018-Jul-05 22:58N 37°56' E 023°41'0 0.0
2018-Jul-05 22:28N 37°56' E 023°41'0 0.0
2018-Jul-05 21:58N 37°56' E 023°41'0 0.0
2018-Jul-05 21:28N 37°56' E 023°41'0 0.0
2018-Jul-05 20:58N 37°56' E 023°41'0 0.0
2018-Jul-05 20:28N 37°56' E 023°41'0 0.0
2018-Jul-05 19:58N 37°56' E 023°41'0 0.0
2018-Jul-05 19:28N 37°56' E 023°41'0 0.0
2018-Jul-05 18:58N 37°56' E 023°41'0 0.0
2018-Jul-05 18:28N 37°56' E 023°41'0 0.0
2018-Jul-05 17:58N 37°56' E 023°41'0 0.0
2018-Jul-05 17:28N 37°56' E 023°41'0 0.0
2018-Jul-05 16:58N 37°56' E 023°41'0 0.0
2018-Jul-05 16:28N 37°56' E 023°41'0 0.0
2018-Jul-05 15:58N 37°56' E 023°41'0 0.0
2018-Jul-05 15:28N 37°56' E 023°41'0 0.0
2018-Jul-05 14:58N 37°56' E 023°41'0 0.0
2018-Jul-05 14:28N 37°56' E 023°41'0 0.0
2018-Jul-05 13:28N 37°56' E 023°41'0 0.0
2018-Jul-05 12:58N 37°56' E 023°41'0 0.0
2018-Jul-05 12:28N 37°56' E 023°41'0 0.0
2018-Jul-05 11:58N 37°56' E 023°41'0 0.0
2018-Jul-05 11:28N 37°56' E 023°41'0 0.0
2018-Jul-05 10:58N 37°56' E 023°41'0 0.0
2018-Jul-05 10:28N 37°56' E 023°41'0 0.0
2018-Jul-05 09:58N 37°56' E 023°41'0 0.0
2018-Jul-05 09:27N 37°56' E 023°41'0 0.0
2018-Jul-05 09:00N 37°56' E 023°41'0 0.0
2018-Jul-05 08:30N 37°56' E 023°41'0 0.0
2018-Jul-05 08:00N 37°56' E 023°41'0 0.0
2018-Jul-05 07:30N 37°56' E 023°41'0 0.0
2018-Jul-05 07:00N 37°56' E 023°41'0 0.0
2018-Jul-05 06:30N 37°56' E 023°41'0 0.0
2018-Jul-05 06:00N 37°56' E 023°41'0 0.0
2018-Jul-05 05:30N 37°56' E 023°41'0 0.0
2018-Jul-05 05:00N 37°56' E 023°41'0 0.0
2018-Jul-05 04:30N 37°56' E 023°41'0 0.0
2018-Jul-05 04:00N 37°56' E 023°41'0 0.0
2018-Jul-05 03:30N 37°56' E 023°41'0 0.0
2018-Jul-05 03:00N 37°56' E 023°41'0 0.0
2018-Jul-05 02:30N 37°56' E 023°41'0 0.0
2018-Jul-05 02:00N 37°56' E 023°41'0 0.0
2018-Jul-05 01:30N 37°56' E 023°41'0 0.0
2018-Jul-05 01:00N 37°56' E 023°41'0 0.0
2018-Jul-05 00:30N 37°56' E 023°41'0 0.0
2018-Jul-05 00:00N 37°56' E 023°41'0 0.0
2018-Jul-04 23:30N 37°56' E 023°41'0 0.0
2018-Jul-04 23:00N 37°56' E 023°41'0 0.0
2018-Jul-04 22:30N 37°56' E 023°41'0 0.0
2018-Jul-04 22:00N 37°56' E 023°41'0 0.0
2018-Jul-04 21:30N 37°56' E 023°41'0 0.0
2018-Jul-04 21:00N 37°56' E 023°41'0 0.0
2018-Jul-04 20:30N 37°56' E 023°41'0 0.0
2018-Jul-04 20:00N 37°56' E 023°41'0 0.0
2018-Jul-04 19:30N 37°56' E 023°41'0 0.0
2018-Jul-04 19:00N 37°56' E 023°41'0 0.0
2018-Jul-04 18:30N 37°56' E 023°41'0 0.0
2018-Jul-04 18:00N 37°56' E 023°41'0 0.0
2018-Jul-04 17:30N 37°56' E 023°41'0 0.0
2018-Jul-04 17:00N 37°56' E 023°41'0 0.0
2018-Jul-04 16:30N 37°56' E 023°41'0 0.0
2018-Jul-04 16:00N 37°56' E 023°41'0 0.0
2018-Jul-04 15:30N 37°56' E 023°41'0 0.0
2018-Jul-04 15:00N 37°56' E 023°41'0 0.0
2018-Jul-04 14:30N 37°56' E 023°41'0 0.0
2018-Jul-04 14:00N 37°56' E 023°41'0 0.0
2018-Jul-04 13:30N 37°56' E 023°41'0 0.0
2018-Jul-04 13:00N 37°56' E 023°41'0 0.0
2018-Jul-04 12:30N 37°56' E 023°41'0 0.0
2018-Jul-04 12:00N 37°56' E 023°41'0 0.0
2018-Jul-04 11:30N 37°56' E 023°41'0 0.0
2018-Jul-04 11:00N 37°56' E 023°41'0 0.0
2018-Jul-04 10:27N 37°56' E 023°41'0 0.0
2018-Jul-04 10:00N 37°56' E 023°41'  

Dump ship's entire track history